William R Fairchild International Airport
KCLM : rendu visible

Aérodrome :











RETROUVEZ-NOUS SUR...

 
LOGIN :

S'inscrire | Disclaimer

   EN    FR    IT 

 









Légende :    VFR   VFR Marginal   IFR   IFR Intensif   IFR Très Intensif
Visi : 
Plafond : 
>= 8 km
>= 3000ft
5 à 8 km
1000 à 3000 ft
1500m à 5 km
500 à 1000 ft
800 à 1500m
200 à 500 ft
< 800m
< 200 ft
Symboles :   Orages  Brouillard  Fortes neiges  Fortes précipitations  Vent > 20 kt






- Altitude de l'aérodrome : 291 ft
- Code IATA : CLM


KCLM - William R Fairchild International

DERNIER METAR :
  • 072253Z AUTO 01004KT 10SM OVC045 18/09 A3018 RMK AO2 SLP221 T01780089

METARs EXPIRÉS :
  • 072153Z AUTO 03005KT 10SM OVC049 19/09 A3019 RMK AO2 SLP222 T01890094
  • 072053Z AUTO 02006KT 10SM FEW046 OVC080 20/09 A3019 RMK AO2 SLP224 T02000094 51001

TAF KCLM
Valide du 07 à 18h jusqu'au 08 à 18h UTC


071737Z 0718/0818 VRB04KT P6SM OVC050
FM080000 28005KT P6SM SCT050 OVC100
FM080300 29005KT P6SM VCSH BKN020 OVC050
FIR KZSE / Amérique du Nord



MET'MAP, la Météo Aéronautique d'un coup d'oeil ! - Copyright ORBIFLY Décembre 2007 - Disclaimer

ORBIFLY MET'MAP TEAM :

Programmation & Développement : Alexandra Zaïnal
Sur une idée originale de : Baudouin d'Aumeries
Assistance à la programmation : Marc-Olivier Méhu
Soutien technique & logistique : Manuel Goepfert

Contact : metmap@orbifly.com




SOURCES & CREDITS :

   NOAA       Earth
Advisory